createdAt,value
2022-10-31T00:01:36.365Z,86.13
2022-10-31T00:04:04.885Z,85.96
2022-10-31T00:06:32.763Z,86.12
2022-10-31T00:09:02.274Z,86.17
2022-10-31T00:11:30.283Z,85.81
2022-10-31T00:13:59.147Z,85.65
2022-10-31T00:16:27.846Z,85.12
2022-10-31T00:19:01.778Z,85.04
2022-10-31T00:21:30.624Z,85.20
2022-10-31T00:23:59.823Z,84.89
2022-10-31T00:26:32.259Z,84.25
2022-10-31T00:29:01.378Z,84.62
2022-10-31T00:31:29.872Z,84.75
2022-10-31T00:33:58.977Z,85.03
2022-10-31T00:36:28.256Z,84.64
2022-10-31T00:38:56.217Z,84.29
2022-10-31T00:41:25.453Z,84.25
2022-10-31T00:43:53.290Z,84.44
2022-10-31T00:46:21.138Z,85.00
2022-10-31T00:48:51.854Z,84.72
2022-10-31T00:51:19.708Z,85.06
2022-10-31T00:53:47.442Z,85.36
2022-10-31T00:56:15.608Z,85.33
2022-10-31T00:58:43.836Z,85.14
2022-10-31T01:01:11.762Z,85.55
2022-10-31T01:03:39.931Z,85.87
2022-10-31T01:06:14.091Z,85.70
2022-10-31T01:08:42.165Z,85.46
2022-10-31T01:11:16.309Z,85.39
2022-10-31T01:13:46.072Z,84.91
2022-10-31T01:16:20.809Z,85.61
2022-10-31T01:18:48.858Z,85.62
2022-10-31T01:21:22.323Z,85.34
2022-10-31T01:23:51.365Z,85.12
2022-10-31T01:26:21.975Z,85.29
2022-10-31T01:28:53.628Z,85.60
2022-10-31T01:31:23.473Z,85.34
2022-10-31T01:33:51.316Z,85.47
2022-10-31T01:36:29.727Z,85.72
2022-10-31T01:39:00.295Z,86.16
2022-10-31T01:41:31.224Z,85.92
2022-10-31T01:44:23.769Z,86.00
2022-10-31T01:47:00.227Z,86.07
2022-10-31T01:49:39.916Z,85.77
2022-10-31T01:52:13.412Z,85.87
2022-10-31T01:54:46.507Z,86.21
2022-10-31T01:57:16.537Z,86.65
2022-10-31T01:59:48.775Z,86.60
2022-10-31T02:02:19.913Z,86.35
2022-10-31T02:04:48.946Z,87.39
2022-10-31T02:07:27.219Z,87.52
2022-10-31T02:09:58.299Z,87.25
2022-10-31T02:12:26.686Z,87.50
2022-10-31T02:15:01.172Z,87.76
2022-10-31T02:17:31.384Z,87.90
2022-10-31T02:20:06.763Z,88.16
2022-10-31T02:23:01.734Z,88.03
2022-10-31T02:25:47.431Z,88.58
2022-10-31T02:28:40.365Z,88.16
2022-10-31T02:31:29.986Z,88.21
2022-10-31T02:34:04.082Z,88.41
2022-10-31T02:36:48.348Z,88.75
2022-10-31T02:39:22.159Z,88.87
2022-10-31T02:42:08.749Z,89.13
2022-10-31T02:44:59.950Z,88.89
2022-10-31T02:47:38.006Z,88.75
2022-10-31T02:50:06.397Z,89.07
2022-10-31T02:52:36.172Z,89.40
2022-10-31T02:55:37.686Z,89.27
2022-10-31T02:58:11.372Z,89.61
2022-10-31T03:01:01.329Z,89.48
2022-10-31T03:03:37.365Z,89.31
2022-10-31T03:06:15.124Z,89.25
2022-10-31T03:08:56.893Z,88.96
2022-10-31T03:11:32.567Z,89.27
2022-10-31T03:14:32.112Z,89.36
2022-10-31T03:17:06.847Z,89.21
2022-10-31T03:19:40.394Z,89.07
2022-10-31T03:22:31.043Z,89.18
2022-10-31T03:25:04.583Z,88.88
2022-10-31T03:27:36.839Z,88.69
2022-10-31T03:30:19.647Z,88.33
2022-10-31T03:33:03.601Z,88.56
2022-10-31T03:35:37.057Z,88.72
2022-10-31T03:38:07.854Z,88.72
2022-10-31T03:40:38.897Z,88.79
2022-10-31T03:43:11.929Z,88.90
2022-10-31T03:45:45.350Z,88.77
2022-10-31T03:48:16.669Z,88.72
2022-10-31T03:51:00.004Z,88.77
2022-10-31T03:53:39.602Z,88.96
2022-10-31T03:56:13.953Z,88.72
2022-10-31T03:58:50.258Z,88.52
2022-10-31T04:01:21.039Z,88.83
2022-10-31T04:03:50.345Z,88.74
2022-10-31T04:06:22.784Z,88.73
2022-10-31T04:08:59.171Z,88.98
2022-10-31T04:11:32.853Z,88.42
2022-10-31T04:14:29.217Z,89.62
2022-10-31T04:16:58.708Z,89.15
2022-10-31T04:19:35.212Z,88.88
2022-10-31T04:22:03.316Z,89.13
2022-10-31T04:24:31.374Z,89.42
2022-10-31T04:26:59.766Z,89.85
2022-10-31T04:29:28.942Z,89.56
2022-10-31T04:31:57.302Z,89.78
2022-10-31T04:34:25.227Z,90.30
2022-10-31T04:36:53.168Z,89.97
2022-10-31T04:39:24.235Z,90.33
2022-10-31T04:42:14.624Z,90.78
2022-10-31T04:44:42.601Z,89.80
2022-10-31T04:47:10.430Z,89.41
2022-10-31T04:49:38.367Z,89.11
2022-10-31T04:52:07.141Z,89.51
2022-10-31T04:54:35.022Z,89.46
2022-10-31T04:57:21.405Z,90.34
2022-10-31T04:59:50.172Z,90.91
2022-10-31T05:02:17.956Z,90.93
2022-10-31T05:04:51.960Z,91.34
2022-10-31T05:07:20.171Z,91.17
2022-10-31T05:09:47.991Z,91.67
2022-10-31T05:12:15.794Z,91.58
2022-10-31T05:15:02.491Z,91.79
2022-10-31T05:17:59.769Z,92.29
2022-10-31T05:20:46.084Z,91.92
2022-10-31T05:23:23.729Z,91.51
2022-10-31T05:25:51.752Z,92.01
2022-10-31T05:28:19.585Z,92.13
2022-10-31T05:30:47.470Z,91.91
2022-10-31T05:33:17.293Z,91.54
2022-10-31T05:36:04.075Z,91.72
2022-10-31T05:38:43.334Z,91.09
2022-10-31T05:41:31.407Z,91.20
2022-10-31T05:44:22.340Z,91.01
2022-10-31T05:47:09.944Z,91.40
2022-10-31T05:49:56.538Z,91.50
2022-10-31T05:52:39.439Z,91.87
2022-10-31T05:55:22.655Z,91.78
2022-10-31T05:58:12.245Z,91.89
2022-10-31T06:00:42.984Z,91.61
2022-10-31T06:03:12.320Z,91.66
2022-10-31T06:05:52.268Z,91.26
2022-10-31T06:08:25.616Z,90.88
2022-10-31T06:10:55.235Z,91.01
2022-10-31T06:13:42.965Z,91.42
2022-10-31T06:16:18.108Z,91.34
2022-10-31T06:18:49.528Z,91.50
2022-10-31T06:21:19.072Z,92.10
2022-10-31T06:23:49.658Z,91.63
2022-10-31T06:26:37.415Z,91.29
2022-10-31T06:29:05.385Z,91.30
2022-10-31T06:32:02.323Z,90.49
2022-10-31T06:34:31.694Z,90.06
2022-10-31T06:36:59.703Z,90.03
2022-10-31T06:39:28.889Z,90.01
2022-10-31T06:41:56.941Z,89.71
2022-10-31T06:44:25.752Z,89.29
2022-10-31T06:46:56.989Z,89.02
2022-10-31T06:49:45.102Z,88.76
2022-10-31T06:52:16.476Z,88.13
2022-10-31T06:54:44.301Z,86.75
2022-10-31T06:57:12.055Z,85.94
2022-10-31T06:59:40.838Z,86.04
2022-10-31T07:02:28.921Z,84.68
2022-10-31T07:04:57.710Z,83.50
2022-10-31T07:07:25.624Z,83.97
2022-10-31T07:09:53.453Z,82.88
2022-10-31T07:12:31.854Z,81.85
2022-10-31T07:15:00.381Z,81.02
2022-10-31T07:17:30.044Z,79.43
2022-10-31T07:20:00.879Z,79.10
2022-10-31T07:22:36.778Z,78.11
2022-10-31T07:25:07.264Z,77.33
2022-10-31T07:27:58.781Z,76.61
2022-10-31T07:30:26.878Z,75.60
2022-10-31T07:32:57.434Z,74.39
2022-10-31T07:35:33.985Z,73.58
2022-10-31T07:38:09.774Z,73.50
2022-10-31T07:40:37.782Z,72.57
2022-10-31T07:43:08.845Z,71.57
2022-10-31T07:46:12.640Z,71.17
2022-10-31T07:49:12.828Z,71.72
2022-10-31T07:51:59.016Z,71.52
2022-10-31T07:54:26.796Z,70.17
2022-10-31T07:56:55.298Z,69.50
2022-10-31T07:59:26.990Z,68.88
2022-10-31T08:01:55.469Z,68.72
2022-10-31T08:04:32.316Z,68.93
2022-10-31T08:07:37.730Z,67.85
2022-10-31T08:10:08.296Z,67.51
2022-10-31T08:12:36.698Z,67.30
2022-10-31T08:15:08.959Z,65.30
2022-10-31T08:17:37.928Z,65.24
2022-10-31T08:20:06.736Z,66.00
2022-10-31T08:22:42.889Z,65.90
2022-10-31T08:25:12.164Z,65.16
2022-10-31T08:27:40.426Z,65.47
2022-10-31T08:30:13.836Z,64.14
2022-10-31T08:33:15.144Z,63.26
2022-10-31T08:36:01.633Z,65.06
2022-10-31T08:38:48.711Z,65.13
2022-10-31T08:41:17.815Z,63.30
2022-10-31T08:43:46.296Z,64.23
2022-10-31T08:46:14.550Z,63.49
2022-10-31T08:48:44.794Z,63.04
2022-10-31T08:51:13.687Z,61.30
2022-10-31T08:53:41.514Z,61.60
2022-10-31T08:56:41.194Z,59.96
2022-10-31T08:59:25.906Z,60.01
2022-10-31T09:02:14.062Z,60.73
2022-10-31T09:04:41.904Z,58.86
2022-10-31T09:07:25.064Z,58.17
2022-10-31T09:09:54.405Z,57.30
2022-10-31T09:12:22.397Z,57.77
2022-10-31T09:15:03.111Z,58.12
2022-10-31T09:17:37.678Z,58.51
2022-10-31T09:20:46.149Z,56.14
2022-10-31T09:23:18.306Z,56.01
2022-10-31T09:25:50.785Z,58.51
2022-10-31T09:28:37.073Z,57.43
2022-10-31T09:31:24.936Z,56.86
2022-10-31T09:34:16.036Z,58.00
2022-10-31T09:37:02.851Z,58.27
2022-10-31T09:39:33.699Z,58.10
2022-10-31T09:42:29.889Z,58.23
2022-10-31T09:45:13.749Z,58.42
2022-10-31T09:47:41.795Z,55.80
2022-10-31T09:50:38.225Z,57.58
2022-10-31T09:53:36.380Z,54.85
2022-10-31T09:56:09.999Z,54.62
2022-10-31T09:58:43.661Z,55.76
2022-10-31T10:01:24.619Z,54.08
2022-10-31T10:03:57.883Z,54.45
2022-10-31T10:06:58.424Z,53.86
2022-10-31T10:09:45.575Z,55.58
2022-10-31T10:12:51.383Z,53.29
2022-10-31T10:15:45.693Z,52.25
2022-10-31T10:18:56.681Z,52.44
2022-10-31T10:21:33.277Z,53.45
2022-10-31T10:24:27.029Z,53.56
2022-10-31T10:27:20.711Z,52.23
2022-10-31T10:30:07.587Z,52.18
2022-10-31T10:32:47.779Z,51.44
2022-10-31T10:35:32.451Z,50.70
2022-10-31T10:38:12.643Z,50.43
2022-10-31T10:40:41.497Z,51.64
2022-10-31T10:43:26.799Z,50.23
2022-10-31T10:46:39.790Z,51.61
2022-10-31T10:49:38.099Z,50.27
2022-10-31T10:52:44.748Z,51.59
2022-10-31T10:55:38.384Z,50.66
2022-10-31T10:58:11.010Z,49.37
2022-10-31T11:00:44.036Z,49.35
2022-10-31T11:03:12.319Z,49.33
2022-10-31T11:05:51.310Z,48.88
2022-10-31T11:08:32.678Z,48.32
2022-10-31T11:11:19.208Z,48.66
2022-10-31T11:13:50.448Z,47.63
2022-10-31T11:16:27.507Z,48.20
2022-10-31T11:19:06.302Z,47.74
2022-10-31T11:21:35.832Z,47.49
2022-10-31T11:24:12.509Z,48.47
2022-10-31T11:26:42.668Z,48.26
2022-10-31T11:29:26.030Z,46.55
2022-10-31T11:31:57.579Z,47.83
2022-10-31T11:34:25.381Z,47.02
2022-10-31T11:36:53.330Z,47.12
2022-10-31T11:39:25.854Z,46.81
2022-10-31T11:41:55.381Z,45.18
2022-10-31T11:44:29.320Z,45.97
2022-10-31T11:46:59.853Z,45.41
2022-10-31T11:49:40.041Z,44.91
2022-10-31T11:52:14.001Z,45.18
2022-10-31T11:54:55.036Z,45.64
2022-10-31T11:57:44.470Z,44.13
2022-10-31T12:00:30.754Z,44.39
2022-10-31T12:03:23.408Z,44.61
2022-10-31T12:06:00.113Z,44.30
2022-10-31T12:08:37.196Z,44.66
2022-10-31T12:11:29.559Z,43.56
2022-10-31T12:14:12.190Z,44.61
2022-10-31T12:16:47.167Z,44.58
2022-10-31T12:19:56.340Z,44.55
2022-10-31T12:22:48.593Z,43.56
2022-10-31T12:25:29.257Z,43.93
2022-10-31T12:28:32.664Z,44.89
2022-10-31T12:31:15.451Z,45.02
2022-10-31T12:34:12.259Z,44.70
2022-10-31T12:36:48.776Z,45.36
2022-10-31T12:39:41.523Z,45.42
2022-10-31T12:42:15.108Z,44.93
2022-10-31T12:44:53.337Z,43.99
2022-10-31T12:47:54.276Z,45.25
2022-10-31T12:50:48.561Z,45.62
2022-10-31T12:53:25.493Z,45.17
2022-10-31T12:56:13.592Z,44.29
2022-10-31T12:59:01.699Z,45.61
2022-10-31T13:01:40.799Z,45.60
2022-10-31T13:04:46.487Z,45.50
2022-10-31T13:07:26.655Z,45.70
2022-10-31T13:10:01.916Z,47.11
2022-10-31T13:12:34.825Z,45.33
2022-10-31T13:15:28.172Z,45.74
2022-10-31T13:18:00.616Z,45.80
2022-10-31T13:20:36.041Z,46.08
2022-10-31T13:23:48.526Z,46.11
2022-10-31T13:26:39.339Z,45.21
2022-10-31T13:29:36.063Z,45.19
2022-10-31T13:32:08.426Z,46.57
2022-10-31T13:34:44.409Z,45.91
2022-10-31T13:37:23.060Z,46.74
2022-10-31T13:39:53.689Z,46.70
2022-10-31T13:42:43.308Z,47.73
2022-10-31T13:45:22.344Z,47.79
2022-10-31T13:48:16.763Z,47.52
2022-10-31T13:51:10.419Z,46.90
2022-10-31T13:53:41.882Z,47.92
2022-10-31T13:56:11.919Z,47.74
2022-10-31T13:58:39.828Z,47.61
2022-10-31T14:01:23.789Z,48.61
2022-10-31T14:04:24.981Z,48.58
2022-10-31T14:07:10.633Z,48.15
2022-10-31T14:09:49.314Z,48.89
2022-10-31T14:12:26.671Z,48.84
2022-10-31T14:15:03.376Z,48.34
2022-10-31T14:17:40.158Z,48.53
2022-10-31T14:20:10.776Z,48.88
2022-10-31T14:22:42.863Z,48.95
2022-10-31T14:25:34.324Z,49.01
2022-10-31T14:28:21.449Z,47.60
2022-10-31T14:30:58.836Z,47.34
2022-10-31T14:33:29.238Z,46.56
2022-10-31T14:36:08.200Z,47.12
2022-10-31T14:38:59.803Z,47.44
2022-10-31T14:41:59.453Z,49.00
2022-10-31T14:44:44.054Z,50.67
2022-10-31T14:47:38.171Z,49.94
2022-10-31T14:50:41.386Z,51.04
2022-10-31T14:53:18.511Z,50.68
2022-10-31T14:55:50.513Z,50.76
2022-10-31T14:58:38.368Z,51.46
2022-10-31T15:01:06.809Z,51.18
2022-10-31T15:03:44.523Z,52.13
2022-10-31T15:06:24.225Z,52.61
2022-10-31T15:08:54.682Z,52.68
2022-10-31T15:11:25.888Z,52.40
2022-10-31T15:13:56.195Z,52.94
2022-10-31T15:16:26.853Z,52.92
2022-10-31T15:19:01.845Z,52.50
2022-10-31T15:21:30.390Z,52.47
2022-10-31T15:24:00.170Z,52.69
2022-10-31T15:26:36.483Z,53.18
2022-10-31T15:29:07.030Z,53.59
2022-10-31T15:31:34.961Z,53.53
2022-10-31T15:36:51.589Z,53.99
2022-10-31T15:39:20.174Z,54.30
2022-10-31T15:41:57.637Z,54.34
2022-10-31T15:44:31.987Z,54.42
2022-10-31T15:47:03.610Z,55.06
2022-10-31T15:49:41.072Z,55.04
2022-10-31T15:52:48.473Z,55.61
2022-10-31T15:55:19.712Z,56.36
2022-10-31T15:57:53.937Z,56.96
2022-10-31T16:00:42.570Z,57.89
2022-10-31T16:03:16.176Z,58.90
2022-10-31T16:05:49.624Z,59.36
2022-10-31T16:08:34.725Z,59.97
2022-10-31T16:11:08.653Z,61.46
2022-10-31T16:13:39.259Z,61.71
2022-10-31T16:19:06.927Z,63.95
2022-10-31T16:21:39.675Z,64.32
2022-10-31T16:24:29.291Z,65.57
2022-10-31T16:27:06.316Z,65.56
2022-10-31T16:29:35.749Z,65.70
2022-10-31T16:32:03.674Z,64.97
2022-10-31T16:34:31.625Z,64.85
2022-10-31T16:36:59.467Z,64.84
2022-10-31T16:39:27.271Z,64.50
2022-10-31T16:41:57.355Z,64.54
2022-10-31T16:44:27.201Z,65.05
2022-10-31T16:47:20.320Z,67.02
2022-10-31T16:49:51.547Z,67.87
2022-10-31T16:52:20.323Z,67.98
2022-10-31T16:54:49.023Z,68.80
2022-10-31T16:57:21.327Z,69.24
2022-10-31T16:59:55.143Z,69.60
2022-10-31T17:02:23.837Z,69.85
2022-10-31T17:04:55.618Z,70.56
2022-10-31T17:07:24.994Z,70.72
2022-10-31T17:09:53.147Z,71.05
2022-10-31T17:12:26.411Z,71.23
2022-10-31T17:14:54.773Z,71.36
2022-10-31T17:17:22.842Z,71.30
2022-10-31T17:19:50.778Z,72.31
2022-10-31T17:22:18.727Z,71.95
2022-10-31T17:24:46.640Z,72.19
2022-10-31T17:27:14.505Z,72.59
2022-10-31T17:29:42.697Z,73.77
2022-10-31T17:32:10.698Z,73.32
2022-10-31T17:34:38.698Z,74.20
2022-10-31T17:37:07.847Z,74.89
2022-10-31T17:39:35.626Z,75.03
2022-10-31T17:42:03.500Z,75.77
2022-10-31T17:44:31.398Z,76.20
2022-10-31T17:46:59.564Z,76.21
2022-10-31T17:49:27.677Z,76.80
2022-10-31T17:51:55.623Z,76.95
2022-10-31T17:54:23.577Z,76.95
2022-10-31T17:56:53.972Z,78.12
2022-10-31T17:59:22.102Z,77.91
2022-10-31T18:01:50.232Z,78.33
2022-10-31T18:04:18.316Z,78.84
2022-10-31T18:06:47.911Z,79.23
2022-10-31T18:09:16.772Z,79.25
2022-10-31T18:11:44.991Z,79.36
2022-10-31T18:14:14.033Z,80.22
2022-10-31T18:16:42.780Z,80.76
2022-10-31T18:19:16.220Z,81.01
2022-10-31T18:21:46.435Z,81.38
2022-10-31T18:24:14.109Z,81.04
2022-10-31T18:26:43.994Z,81.02
2022-10-31T18:29:12.580Z,81.54
2022-10-31T18:31:40.518Z,82.03
2022-10-31T18:34:08.189Z,82.18
2022-10-31T18:36:35.772Z,83.03
2022-10-31T18:39:03.445Z,83.47
2022-10-31T18:41:31.094Z,83.92
2022-10-31T18:44:02.768Z,84.18
2022-10-31T18:46:30.367Z,83.81
2022-10-31T18:48:58.062Z,84.24
2022-10-31T18:51:26.983Z,85.12
2022-10-31T18:53:58.309Z,84.23
2022-10-31T18:56:27.741Z,84.80
2022-10-31T18:58:55.591Z,85.69
2022-10-31T19:01:23.474Z,85.91
2022-10-31T19:03:55.748Z,86.07
2022-10-31T19:06:26.443Z,86.57
2022-10-31T19:08:59.982Z,86.43
2022-10-31T19:11:28.153Z,86.84
2022-10-31T19:13:58.397Z,87.24
2022-10-31T19:16:26.853Z,87.13
2022-10-31T19:18:56.264Z,87.33
2022-10-31T19:21:24.429Z,87.36
2022-10-31T19:23:54.180Z,87.73
2022-10-31T19:26:25.196Z,87.60
2022-10-31T19:28:53.210Z,87.94
2022-10-31T19:31:20.881Z,87.94
2022-10-31T19:33:48.570Z,88.09
2022-10-31T19:36:18.821Z,88.23
2022-10-31T19:38:49.030Z,88.38
2022-10-31T19:41:20.238Z,88.57
2022-10-31T19:43:48.487Z,88.88
2022-10-31T19:46:27.969Z,88.45
2022-10-31T19:49:06.008Z,88.03
2022-10-31T19:51:33.555Z,87.96
2022-10-31T19:54:01.489Z,87.79
2022-10-31T19:56:30.354Z,88.38
2022-10-31T19:58:59.894Z,88.79
2022-10-31T20:01:27.603Z,88.83
2022-10-31T20:03:55.338Z,88.80
2022-10-31T20:06:24.430Z,88.46
2022-10-31T20:08:52.523Z,88.87
2022-10-31T20:11:20.105Z,89.56
2022-10-31T20:13:47.752Z,88.75
2022-10-31T20:16:16.725Z,88.52
2022-10-31T20:18:45.105Z,87.98
2022-10-31T20:21:18.710Z,88.35
2022-10-31T20:23:47.764Z,88.22
2022-10-31T20:27:06.170Z,88.17
2022-10-31T20:29:34.565Z,88.17
2022-10-31T20:32:03.215Z,88.51
2022-10-31T20:34:31.082Z,88.46
2022-10-31T20:36:58.973Z,88.67
2022-10-31T20:39:26.709Z,88.44
2022-10-31T20:41:54.554Z,88.83
2022-10-31T20:44:23.159Z,89.27
2022-10-31T20:46:50.838Z,89.29
2022-10-31T20:49:18.717Z,89.53
2022-10-31T20:51:46.744Z,90.05
2022-10-31T20:54:16.681Z,89.71
2022-10-31T20:56:47.310Z,89.51
2022-10-31T20:59:17.806Z,89.57
2022-10-31T21:01:45.697Z,89.90
2022-10-31T21:04:13.562Z,89.75
2022-10-31T21:06:48.193Z,88.72
2022-10-31T21:09:19.091Z,88.47
2022-10-31T21:11:46.799Z,89.40
2022-10-31T21:14:16.050Z,88.48
2022-10-31T21:16:43.910Z,88.96
2022-10-31T21:19:13.071Z,89.50
2022-10-31T21:21:41.191Z,88.69
2022-10-31T21:24:15.747Z,89.00
2022-10-31T21:26:48.453Z,89.00
2022-10-31T21:29:17.724Z,89.42
2022-10-31T21:31:46.062Z,88.88
2022-10-31T21:34:14.222Z,89.63
2022-10-31T21:36:42.059Z,88.95
2022-10-31T21:39:10.610Z,89.97
2022-10-31T21:41:38.423Z,90.11
2022-10-31T21:44:06.604Z,90.13
2022-10-31T21:46:35.552Z,90.08
2022-10-31T21:49:06.430Z,89.99
2022-10-31T21:51:36.121Z,89.58
2022-10-31T21:54:22.628Z,89.62
2022-10-31T21:56:51.197Z,89.96
2022-10-31T21:59:18.840Z,90.01
2022-10-31T22:01:46.620Z,89.84
2022-10-31T22:04:14.900Z,89.62
2022-10-31T22:06:42.631Z,90.06
2022-10-31T22:09:12.905Z,90.09
2022-10-31T22:11:42.380Z,89.53
2022-10-31T22:14:14.762Z,89.61
2022-10-31T22:16:43.134Z,89.22
2022-10-31T22:19:13.409Z,89.13
2022-10-31T22:21:44.709Z,89.62
2022-10-31T22:24:13.212Z,89.41
2022-10-31T22:26:41.260Z,89.33
2022-10-31T22:29:15.847Z,89.18
2022-10-31T22:31:48.428Z,89.52
2022-10-31T22:34:19.137Z,89.10
2022-10-31T22:36:46.896Z,88.78
2022-10-31T22:39:15.066Z,89.05
2022-10-31T22:41:42.762Z,89.27
2022-10-31T22:44:10.720Z,88.63
2022-10-31T22:46:40.079Z,88.02
2022-10-31T22:49:11.173Z,87.47
2022-10-31T22:51:40.877Z,87.92
2022-10-31T22:54:13.273Z,87.89
2022-10-31T22:56:41.099Z,87.54
2022-10-31T22:59:13.719Z,88.10
2022-10-31T23:01:42.034Z,88.21
2022-10-31T23:06:43.023Z,88.26
2022-10-31T23:09:14.348Z,87.90
2022-10-31T23:11:42.323Z,87.94
2022-10-31T23:14:18.669Z,87.96
2022-10-31T23:16:53.174Z,88.12
2022-10-31T23:19:23.746Z,88.23
2022-10-31T23:21:57.785Z,87.98
2022-10-31T23:24:47.849Z,87.29
2022-10-31T23:27:21.684Z,87.84
2022-10-31T23:29:50.819Z,87.88
2022-10-31T23:32:27.308Z,87.91
2022-10-31T23:34:59.983Z,88.12
2022-10-31T23:37:30.498Z,88.04
2022-10-31T23:39:58.373Z,87.56
2022-10-31T23:42:27.376Z,88.18
2022-10-31T23:44:55.496Z,88.39
2022-10-31T23:47:23.981Z,88.76
2022-10-31T23:49:54.397Z,89.01
2022-10-31T23:52:22.085Z,89.17
2022-10-31T23:54:49.878Z,89.16
2022-10-31T23:57:17.737Z,88.61
2022-10-31T23:59:45.420Z,88.55
